createdAt,value
2019-02-17T00:00:35.370Z,8.57
2019-02-17T00:01:35.362Z,8.55
2019-02-17T00:02:35.356Z,8.49
2019-02-17T00:03:35.346Z,8.49
2019-02-17T00:04:35.334Z,8.50
2019-02-17T00:05:35.331Z,8.36
2019-02-17T00:06:35.312Z,8.37
2019-02-17T00:07:35.303Z,8.39
2019-02-17T00:08:35.296Z,8.36
2019-02-17T00:09:35.289Z,8.27
2019-02-17T00:10:35.273Z,8.21
2019-02-17T00:11:35.263Z,8.12
2019-02-17T00:12:35.257Z,8.12
2019-02-17T00:13:35.250Z,8.04
2019-02-17T00:14:35.242Z,8.07
2019-02-17T00:15:35.231Z,8.06
2019-02-17T00:16:35.224Z,7.96
2019-02-17T00:17:35.214Z,8.02
2019-02-17T00:18:35.199Z,7.88
2019-02-17T00:19:35.189Z,7.85
2019-02-17T00:20:35.180Z,7.89
2019-02-17T00:21:35.167Z,7.71
2019-02-17T00:22:35.163Z,7.71
2019-02-17T00:23:35.153Z,7.71
2019-02-17T00:24:35.138Z,7.63
2019-02-17T00:25:35.131Z,7.55
2019-02-17T00:26:35.130Z,7.51
2019-02-17T00:27:35.115Z,7.45
2019-02-17T00:28:35.108Z,7.48
2019-02-17T00:29:35.097Z,7.39
2019-02-17T00:30:35.085Z,7.37
2019-02-17T00:31:35.073Z,7.27
2019-02-17T00:32:35.064Z,7.36
2019-02-17T00:33:35.053Z,7.27
2019-02-17T00:34:35.049Z,7.39
2019-02-17T00:35:35.079Z,7.41
2019-02-17T00:36:35.029Z,7.47
2019-02-17T00:37:35.017Z,7.42
2019-02-17T00:38:35.002Z,7.60
2019-02-17T00:39:34.993Z,7.66
2019-02-17T00:40:34.993Z,7.73
2019-02-17T00:41:34.978Z,7.85
2019-02-17T00:42:34.963Z,8.07
2019-02-17T00:43:34.952Z,8.12
2019-02-17T00:44:34.945Z,8.14
2019-02-17T00:45:34.936Z,8.29
2019-02-17T00:46:34.931Z,8.34
2019-02-17T00:47:34.923Z,8.37
2019-02-17T00:48:34.912Z,8.45
2019-02-17T00:49:34.900Z,8.54
2019-02-17T00:50:34.889Z,8.60
2019-02-17T00:51:34.876Z,8.65
2019-02-17T00:52:34.869Z,8.68
2019-02-17T00:53:34.859Z,8.75
2019-02-17T00:54:34.855Z,8.91
2019-02-17T00:55:34.844Z,8.94
2019-02-17T00:56:34.830Z,9.12
2019-02-17T00:57:34.822Z,9.15
2019-02-17T00:58:34.816Z,9.10
2019-02-17T00:59:34.808Z,9.13
2019-02-17T01:00:34.795Z,9.19
2019-02-17T01:01:34.789Z,9.31
2019-02-17T01:02:34.778Z,9.27
2019-02-17T01:03:34.764Z,9.37
2019-02-17T01:04:34.756Z,9.38
2019-02-17T01:05:34.745Z,9.44
2019-02-17T01:06:34.744Z,9.42
2019-02-17T01:07:34.732Z,9.49
2019-02-17T01:08:34.727Z,9.42
2019-02-17T01:09:34.717Z,9.48
2019-02-17T01:10:34.702Z,9.42
2019-02-17T01:11:34.692Z,9.41
2019-02-17T01:12:34.688Z,9.45
2019-02-17T01:13:34.678Z,9.50
2019-02-17T01:14:34.667Z,9.52
2019-02-17T01:15:34.654Z,9.50
2019-02-17T01:16:34.646Z,9.65
2019-02-17T01:17:34.635Z,9.60
2019-02-17T01:18:34.630Z,9.63
2019-02-17T01:19:34.622Z,9.70
2019-02-17T01:20:34.616Z,9.62
2019-02-17T01:21:34.602Z,9.68
2019-02-17T01:22:34.590Z,9.70
2019-02-17T01:23:34.577Z,9.70
2019-02-17T01:24:34.572Z,9.70
2019-02-17T01:25:34.564Z,9.70
2019-02-17T01:26:34.558Z,9.77
2019-02-17T01:27:34.549Z,9.74
2019-02-17T01:28:34.535Z,9.73
2019-02-17T01:29:34.527Z,9.70
2019-02-17T01:30:34.524Z,9.75
2019-02-17T01:31:34.511Z,9.75
2019-02-17T01:32:34.499Z,9.74
2019-02-17T01:33:34.492Z,9.75
2019-02-17T01:34:34.479Z,9.78
2019-02-17T01:35:34.468Z,9.71
2019-02-17T01:36:34.461Z,9.73
2019-02-17T01:37:34.454Z,9.75
2019-02-17T01:38:34.446Z,9.73
2019-02-17T01:39:34.436Z,9.73
2019-02-17T01:40:34.430Z,9.74
2019-02-17T01:41:34.422Z,9.80
2019-02-17T01:42:34.408Z,9.74
2019-02-17T01:43:34.396Z,9.75
2019-02-17T01:44:34.392Z,9.73
2019-02-17T01:45:34.386Z,9.75
2019-02-17T01:46:34.372Z,9.73
2019-02-17T01:47:34.363Z,9.63
2019-02-17T01:48:34.350Z,9.75
2019-02-17T01:49:34.339Z,9.86
2019-02-17T01:50:34.337Z,9.73
2019-02-17T01:51:34.327Z,9.71
2019-02-17T01:52:34.320Z,9.78
2019-02-17T01:53:34.315Z,9.75
2019-02-17T01:54:34.298Z,9.75
2019-02-17T01:55:34.288Z,9.77
2019-02-17T01:56:34.275Z,9.80
2019-02-17T01:57:34.270Z,9.75
2019-02-17T01:58:34.264Z,9.80
2019-02-17T01:59:34.253Z,9.75
2019-02-17T02:00:34.240Z,9.80
2019-02-17T02:01:34.233Z,9.74
2019-02-17T02:02:34.226Z,9.70
2019-02-17T02:03:34.220Z,9.70
2019-02-17T02:04:34.213Z,9.63
2019-02-17T02:05:34.205Z,9.63
2019-02-17T02:06:34.190Z,9.67
2019-02-17T02:07:34.179Z,9.63
2019-02-17T02:08:34.170Z,9.68
2019-02-17T02:09:34.160Z,9.65
2019-02-17T02:10:34.157Z,9.63
2019-02-17T02:11:34.147Z,9.62
2019-02-17T02:12:34.135Z,9.62
2019-02-17T02:13:34.126Z,9.49
2019-02-17T02:14:34.113Z,9.48
2019-02-17T02:15:34.103Z,9.48
2019-02-17T02:16:34.102Z,9.52
2019-02-17T02:17:34.091Z,9.50
2019-02-17T02:18:34.081Z,9.45
2019-02-17T02:19:34.066Z,9.48
2019-02-17T02:20:34.060Z,9.55
2019-02-17T02:21:34.053Z,9.42
2019-02-17T02:22:34.046Z,9.45
2019-02-17T02:23:34.038Z,9.49
2019-02-17T02:24:34.032Z,9.53
2019-02-17T02:25:34.018Z,9.52
2019-02-17T02:26:34.006Z,9.44
2019-02-17T02:27:33.995Z,9.53
2019-02-17T02:28:33.983Z,9.48
2019-02-17T02:29:40.774Z,9.44
2019-02-17T02:30:33.971Z,9.37
2019-02-17T02:31:33.962Z,9.40
2019-02-17T02:32:33.948Z,9.44
2019-02-17T02:33:33.937Z,9.48
2019-02-17T02:34:33.936Z,9.52
2019-02-17T02:35:33.924Z,9.48
2019-02-17T02:36:33.918Z,9.50
2019-02-17T02:37:33.926Z,9.42
2019-02-17T02:38:33.895Z,9.45
2019-02-17T02:39:33.887Z,9.38
2019-02-17T02:40:33.877Z,9.50
2019-02-17T02:41:35.084Z,9.42
2019-02-17T02:42:33.862Z,9.45
2019-02-17T02:43:33.853Z,9.50
2019-02-17T02:44:33.843Z,9.40
2019-02-17T02:45:33.832Z,9.40
2019-02-17T02:46:33.817Z,9.44
2019-02-17T02:47:33.808Z,9.40
2019-02-17T02:48:33.804Z,9.42
2019-02-17T02:49:33.795Z,9.34
2019-02-17T02:50:33.781Z,9.38
2019-02-17T02:51:33.772Z,9.38
2019-02-17T02:52:33.765Z,9.38
2019-02-17T02:53:33.756Z,9.26
2019-02-17T02:54:33.759Z,9.40
2019-02-17T02:55:33.741Z,9.37
2019-02-17T02:56:33.732Z,9.27
2019-02-17T02:57:33.725Z,9.26
2019-02-17T02:58:33.710Z,9.24
2019-02-17T02:59:33.701Z,9.32
2019-02-17T03:00:33.695Z,9.30
2019-02-17T03:01:33.679Z,9.31
2019-02-17T03:02:33.675Z,9.27
2019-02-17T03:03:33.664Z,9.31
2019-02-17T03:04:33.655Z,9.22
2019-02-17T03:05:33.646Z,9.22
2019-02-17T03:06:33.637Z,9.27
2019-02-17T03:07:33.629Z,9.16
2019-02-17T03:08:33.621Z,9.16
2019-02-17T03:09:33.612Z,9.22
2019-02-17T03:10:33.598Z,9.17
2019-02-17T03:11:33.588Z,9.22
2019-02-17T03:12:33.581Z,9.15
2019-02-17T03:13:33.569Z,9.16
2019-02-17T03:14:33.568Z,9.17
2019-02-17T03:15:33.556Z,9.16
2019-02-17T03:16:33.544Z,9.19
2019-02-17T03:17:33.537Z,9.13
2019-02-17T03:18:33.520Z,9.15
2019-02-17T03:19:33.513Z,9.15
2019-02-17T03:20:33.506Z,9.17
2019-02-17T03:21:33.497Z,9.13
2019-02-17T03:22:33.483Z,9.08
2019-02-17T03:23:33.478Z,9.04
2019-02-17T03:24:33.466Z,9.12
2019-02-17T03:25:33.458Z,8.97
2019-02-17T03:26:33.455Z,8.98
2019-02-17T03:27:33.442Z,8.93
2019-02-17T03:28:33.433Z,8.88
2019-02-17T03:29:33.424Z,8.89
2019-02-17T03:30:33.412Z,8.88
2019-02-17T03:31:33.418Z,8.89
2019-02-17T03:32:33.390Z,8.85
2019-02-17T03:33:33.381Z,8.82
2019-02-17T03:34:33.375Z,8.85
2019-02-17T03:35:33.365Z,8.76
2019-02-17T03:36:33.350Z,8.85
2019-02-17T03:37:33.341Z,8.80
2019-02-17T03:38:33.339Z,8.73
2019-02-17T03:39:33.333Z,8.71
2019-02-17T03:40:33.322Z,8.68
2019-02-17T03:41:33.314Z,8.68
2019-02-17T03:42:33.297Z,8.58
2019-02-17T03:43:33.290Z,8.52
2019-02-17T03:44:33.278Z,8.55
2019-02-17T03:45:33.269Z,8.42
2019-02-17T03:46:33.263Z,8.36
2019-02-17T03:47:33.253Z,8.46
2019-02-17T03:48:33.247Z,8.31
2019-02-17T03:49:33.233Z,8.25
2019-02-17T03:50:33.219Z,8.22
2019-02-17T03:51:33.211Z,8.12
2019-02-17T03:52:33.203Z,8.06
2019-02-17T03:53:33.196Z,7.99
2019-02-17T03:54:33.179Z,7.85
2019-02-17T03:55:33.170Z,7.86
2019-02-17T03:56:33.169Z,7.88
2019-02-17T03:57:33.154Z,7.81
2019-02-17T03:58:33.150Z,7.73
2019-02-17T03:59:33.138Z,7.66
2019-02-17T04:00:33.126Z,7.67
2019-02-17T04:01:33.118Z,7.58
2019-02-17T04:02:33.102Z,7.67
2019-02-17T04:03:33.095Z,7.57
2019-02-17T04:04:33.085Z,7.62
2019-02-17T04:05:33.075Z,7.63
2019-02-17T04:06:33.072Z,7.62
2019-02-17T04:07:33.059Z,7.63
2019-02-17T04:08:33.045Z,7.58
2019-02-17T04:09:33.036Z,7.66
2019-02-17T04:10:33.035Z,7.66
2019-02-17T04:11:33.022Z,7.67
2019-02-17T04:12:33.018Z,7.66
2019-02-17T04:13:32.998Z,7.71
2019-02-17T04:14:32.983Z,7.73
2019-02-17T04:15:32.972Z,7.74
2019-02-17T04:16:32.964Z,7.77
2019-02-17T04:17:32.953Z,7.70
2019-02-17T04:18:32.950Z,7.85
2019-02-17T04:19:32.937Z,7.76
2019-02-17T04:20:32.931Z,7.89
2019-02-17T04:21:33.555Z,7.92
2019-02-17T04:22:32.908Z,7.89
2019-02-17T04:23:32.898Z,8.02
2019-02-17T04:24:32.915Z,8.06
2019-02-17T04:25:32.881Z,8.12
2019-02-17T04:26:32.870Z,8.21
2019-02-17T04:27:32.857Z,8.13
2019-02-17T04:28:32.944Z,8.18
2019-02-17T04:29:32.838Z,8.27
2019-02-17T04:30:32.830Z,8.37
2019-02-17T04:31:32.820Z,8.27
2019-02-17T04:32:32.810Z,8.31
2019-02-17T04:33:32.800Z,8.55
2019-02-17T04:34:32.787Z,8.58
2019-02-17T04:35:32.776Z,8.73
2019-02-17T04:36:32.776Z,8.76
2019-02-17T04:37:32.762Z,8.76
2019-02-17T04:38:32.758Z,8.79
2019-02-17T04:39:32.744Z,8.76
2019-02-17T04:40:32.731Z,8.76
2019-02-17T04:41:32.722Z,8.73
2019-02-17T04:42:32.717Z,8.73
2019-02-17T04:43:32.707Z,8.73
2019-02-17T04:44:32.754Z,8.73
2019-02-17T04:45:32.685Z,8.73
2019-02-17T04:46:32.706Z,8.70
2019-02-17T04:47:32.660Z,8.65
2019-02-17T04:48:32.650Z,8.60
2019-02-17T04:49:32.642Z,8.52
2019-02-17T04:50:32.635Z,8.46
2019-02-17T04:51:32.625Z,8.43
2019-02-17T04:52:32.619Z,8.37
2019-02-17T04:53:32.609Z,8.63
2019-02-17T04:54:32.596Z,8.50
2019-02-17T04:55:32.585Z,8.45
2019-02-17T04:56:32.580Z,8.58
2019-02-17T04:57:32.572Z,8.61
2019-02-17T04:58:32.578Z,8.57
2019-02-17T04:59:32.547Z,8.58
2019-02-17T05:00:39.832Z,8.60
2019-02-17T05:01:32.538Z,8.65
2019-02-17T05:02:32.528Z,8.76
2019-02-17T05:03:32.511Z,8.79
2019-02-17T05:04:32.502Z,8.76
2019-02-17T05:05:32.493Z,8.78
2019-02-17T05:06:32.491Z,8.70
2019-02-17T05:07:32.470Z,8.73
2019-02-17T05:08:32.456Z,8.73
2019-02-17T05:09:32.447Z,8.71
2019-02-17T05:10:32.447Z,8.80
2019-02-17T05:11:32.442Z,8.88
2019-02-17T05:12:32.420Z,8.97
2019-02-17T05:13:32.409Z,9.00
2019-02-17T05:14:32.405Z,9.06
2019-02-17T05:15:32.402Z,8.97
2019-02-17T05:16:32.386Z,8.96
2019-02-17T05:17:32.442Z,9.04
2019-02-17T05:18:32.362Z,9.00
2019-02-17T05:19:32.364Z,9.08
2019-02-17T05:20:32.343Z,9.12
2019-02-17T05:21:32.335Z,9.12
2019-02-17T05:22:32.328Z,9.00
2019-02-17T05:23:32.320Z,9.00
2019-02-17T05:24:32.309Z,9.04
2019-02-17T05:25:32.297Z,9.01
2019-02-17T05:26:32.284Z,8.96
2019-02-17T05:27:32.279Z,8.98
2019-02-17T05:28:32.273Z,8.91
2019-02-17T05:29:32.260Z,8.98
2019-02-17T05:30:32.244Z,9.00
2019-02-17T05:31:32.233Z,9.04
2019-02-17T05:32:32.228Z,9.01
2019-02-17T05:33:32.218Z,9.00
2019-02-17T05:34:32.216Z,8.96
2019-02-17T05:35:32.202Z,8.89
2019-02-17T05:36:32.193Z,8.88
2019-02-17T05:37:32.184Z,8.86
2019-02-17T05:38:32.170Z,8.86
2019-02-17T05:39:32.159Z,8.83
2019-02-17T05:40:32.149Z,8.88
2019-02-17T05:41:32.139Z,8.89
2019-02-17T05:42:32.134Z,8.83
2019-02-17T05:43:32.123Z,8.88
2019-02-17T05:44:32.108Z,8.83
2019-02-17T05:45:32.106Z,9.13
2019-02-17T05:46:32.093Z,9.08
2019-02-17T05:47:32.083Z,9.12
2019-02-17T05:48:32.077Z,9.10
2019-02-17T05:49:32.067Z,9.04
2019-02-17T05:50:32.054Z,9.08
2019-02-17T05:51:32.044Z,9.12
2019-02-17T05:52:32.034Z,9.01
2019-02-17T05:53:32.026Z,9.03
2019-02-17T05:54:32.021Z,9.00
2019-02-17T05:55:32.010Z,9.12
2019-02-17T05:56:31.998Z,9.15
2019-02-17T05:57:31.992Z,9.16
2019-02-17T05:58:31.973Z,9.04
2019-02-17T05:59:31.965Z,9.10
2019-02-17T06:00:31.963Z,9.13
2019-02-17T06:01:31.948Z,9.06
2019-02-17T06:02:31.935Z,9.06
2019-02-17T06:03:31.924Z,9.06
2019-02-17T06:04:31.917Z,9.10
2019-02-17T06:05:31.908Z,9.10
2019-02-17T06:06:31.903Z,9.12
2019-02-17T06:07:32.007Z,9.06
2019-02-17T06:08:31.880Z,9.01
2019-02-17T06:09:31.874Z,9.03
2019-02-17T06:10:31.860Z,9.08
2019-02-17T06:11:31.848Z,9.20
2019-02-17T06:12:31.840Z,9.26
2019-02-17T06:13:31.833Z,9.22
2019-02-17T06:14:31.826Z,9.30
2019-02-17T06:15:31.815Z,9.22
2019-02-17T06:16:31.803Z,9.31
2019-02-17T06:17:31.792Z,9.27
2019-02-17T06:18:31.788Z,9.30
2019-02-17T06:19:31.778Z,9.23
2019-02-17T06:20:31.770Z,9.19
2019-02-17T06:21:31.758Z,9.34
2019-02-17T06:22:31.740Z,9.32
2019-02-17T06:23:31.732Z,9.31
2019-02-17T06:24:31.722Z,9.30
2019-02-17T06:25:31.712Z,9.34
2019-02-17T06:26:31.707Z,9.31
2019-02-17T06:27:31.698Z,9.24
2019-02-17T06:28:31.690Z,9.31
2019-02-17T06:29:31.680Z,9.27
2019-02-17T06:30:31.668Z,9.26
2019-02-17T06:31:31.655Z,9.32
2019-02-17T06:32:31.652Z,9.27
2019-02-17T06:33:31.706Z,9.24
2019-02-17T06:34:31.629Z,9.38
2019-02-17T06:35:31.620Z,9.41
2019-02-17T06:36:31.613Z,9.44
2019-02-17T06:37:31.597Z,9.59
2019-02-17T06:38:31.592Z,9.52
2019-02-17T06:39:31.584Z,9.55
2019-02-17T06:40:31.574Z,9.53
2019-02-17T06:41:31.566Z,9.52
2019-02-17T06:42:31.550Z,9.45
2019-02-17T06:43:31.539Z,9.42
2019-02-17T06:44:31.534Z,9.44
2019-02-17T06:45:31.524Z,9.50
2019-02-17T06:46:31.520Z,9.41
2019-02-17T06:47:31.509Z,9.41
2019-02-17T06:48:31.497Z,9.45
2019-02-17T06:49:31.486Z,9.42
2019-02-17T06:50:32.907Z,9.41
2019-02-17T06:51:31.471Z,9.50
2019-02-17T06:52:31.459Z,9.48
2019-02-17T06:53:31.448Z,9.49
2019-02-17T06:54:31.435Z,9.49
2019-02-17T06:55:31.427Z,9.50
2019-02-17T06:56:31.422Z,9.53
2019-02-17T06:57:31.406Z,9.50
2019-02-17T06:58:31.404Z,9.52
2019-02-17T06:59:31.393Z,9.49
2019-02-17T07:00:31.385Z,9.59
2019-02-17T07:01:31.377Z,9.60
2019-02-17T07:02:31.362Z,9.70
2019-02-17T07:03:31.373Z,9.70
2019-02-17T07:04:31.371Z,9.70
2019-02-17T07:05:31.362Z,9.65
2019-02-17T07:06:31.384Z,9.71
2019-02-17T07:07:31.314Z,9.71
2019-02-17T07:08:31.327Z,9.80
2019-02-17T07:09:31.295Z,9.81
2019-02-17T07:10:31.290Z,9.77
2019-02-17T07:11:31.293Z,9.80
2019-02-17T07:12:31.270Z,9.77
2019-02-17T07:13:31.319Z,9.81
2019-02-17T07:14:31.258Z,9.83
2019-02-17T07:15:31.247Z,9.81
2019-02-17T07:16:31.236Z,9.89
2019-02-17T07:17:31.229Z,9.89
2019-02-17T07:18:31.212Z,9.88
2019-02-17T07:19:31.204Z,9.95
2019-02-17T07:20:31.202Z,9.95
2019-02-17T07:21:31.192Z,9.93
2019-02-17T07:22:31.178Z,10.07
2019-02-17T07:23:31.167Z,10.09
2019-02-17T07:24:31.162Z,10.20
2019-02-17T07:25:31.154Z,10.22
2019-02-17T07:26:31.149Z,10.16
2019-02-17T07:27:31.139Z,10.25
2019-02-17T07:28:31.133Z,10.20
2019-02-17T07:29:31.123Z,10.49
2019-02-17T07:30:31.110Z,10.73
2019-02-17T07:31:34.834Z,10.80
2019-02-17T07:32:31.094Z,11.08
2019-02-17T07:33:31.086Z,11.23
2019-02-17T07:34:31.080Z,11.24
2019-02-17T07:35:31.070Z,11.39
2019-02-17T07:36:31.058Z,11.57
2019-02-17T07:37:33.823Z,11.53
2019-02-17T07:38:31.047Z,11.54
2019-02-17T07:39:31.038Z,11.51
2019-02-17T07:40:31.032Z,11.64
2019-02-17T07:41:31.025Z,11.44
2019-02-17T07:42:31.016Z,11.44
2019-02-17T07:43:31.007Z,11.31
2019-02-17T07:44:30.999Z,11.41
2019-02-17T07:45:30.992Z,11.31
2019-02-17T07:46:30.989Z,11.23
2019-02-17T07:47:30.988Z,11.27
2019-02-17T07:48:30.973Z,11.31
2019-02-17T07:49:30.984Z,11.49
2019-02-17T07:50:30.955Z,11.75
2019-02-17T07:51:30.947Z,12.03
2019-02-17T07:52:30.947Z,11.75
2019-02-17T07:53:30.943Z,11.94
2019-02-17T07:54:30.928Z,12.04
2019-02-17T07:55:30.922Z,12.12
2019-02-17T07:56:30.919Z,12.21
2019-02-17T07:57:30.914Z,12.25
2019-02-17T07:58:30.910Z,12.61
2019-02-17T07:59:30.905Z,12.48
2019-02-17T08:00:30.900Z,12.44
2019-02-17T08:01:30.892Z,12.88
2019-02-17T08:02:30.881Z,12.80
2019-02-17T08:03:30.875Z,13.22
2019-02-17T08:04:30.866Z,13.47
2019-02-17T08:05:30.862Z,13.25
2019-02-17T08:06:30.862Z,13.06
2019-02-17T08:07:30.863Z,12.96
2019-02-17T08:08:30.847Z,13.01
2019-02-17T08:09:30.841Z,12.76
2019-02-17T08:10:30.845Z,12.73
2019-02-17T08:11:30.836Z,12.95
2019-02-17T08:12:30.838Z,12.76
2019-02-17T08:13:30.832Z,13.07
2019-02-17T08:14:30.825Z,13.17
2019-02-17T08:15:30.819Z,13.14
2019-02-17T08:16:30.812Z,13.06
2019-02-17T08:17:30.807Z,12.91
2019-02-17T08:18:30.809Z,13.17
2019-02-17T08:19:30.804Z,13.29
2019-02-17T08:20:30.803Z,13.13
2019-02-17T08:21:30.800Z,13.07
2019-02-17T08:22:30.791Z,13.46
2019-02-17T08:23:30.792Z,13.57
2019-02-17T08:24:30.789Z,13.54
2019-02-17T08:25:30.788Z,13.96
2019-02-17T08:26:30.781Z,14.06
2019-02-17T08:27:30.775Z,13.90
2019-02-17T08:28:30.769Z,14.04
2019-02-17T08:29:30.775Z,14.35
2019-02-17T08:30:30.771Z,14.05
2019-02-17T08:31:30.766Z,14.35
2019-02-17T08:32:30.762Z,13.87
2019-02-17T08:33:30.763Z,14.04
2019-02-17T08:34:30.788Z,14.11
2019-02-17T08:35:30.752Z,14.12
2019-02-17T08:36:30.753Z,14.46
2019-02-17T08:37:30.755Z,14.36
2019-02-17T08:38:30.755Z,14.61
2019-02-17T08:39:30.751Z,14.49
2019-02-17T08:40:30.745Z,14.78
2019-02-17T08:41:30.745Z,14.85
2019-02-17T08:42:30.747Z,14.56
2019-02-17T08:43:30.745Z,14.39
2019-02-17T08:44:30.745Z,14.64
2019-02-17T08:45:30.742Z,15.05
2019-02-17T08:46:30.736Z,15.44
2019-02-17T08:47:30.733Z,15.67
2019-02-17T08:48:30.733Z,15.59
2019-02-17T08:49:30.732Z,16.06
2019-02-17T08:50:30.737Z,15.98
2019-02-17T08:51:30.736Z,16.66
2019-02-17T08:52:30.741Z,16.52
2019-02-17T08:53:30.737Z,16.50
2019-02-17T08:54:30.732Z,16.26
2019-02-17T08:55:30.732Z,16.08
2019-02-17T08:56:30.736Z,15.95
2019-02-17T08:57:30.737Z,16.03
2019-02-17T08:58:30.733Z,16.16
2019-02-17T08:59:30.732Z,16.60
2019-02-17T09:00:30.729Z,16.32
2019-02-17T09:01:30.730Z,16.78
2019-02-17T09:02:30.736Z,17.14
2019-02-17T09:03:30.734Z,17.05
2019-02-17T09:04:30.736Z,17.20
2019-02-17T09:05:30.736Z,17.05
2019-02-17T09:06:30.734Z,16.70
2019-02-17T09:07:30.732Z,16.52
2019-02-17T09:08:30.735Z,16.33
2019-02-17T09:09:30.736Z,15.74
2019-02-17T09:10:30.741Z,15.56
2019-02-17T09:11:30.743Z,15.33
2019-02-17T09:12:30.738Z,15.43
2019-02-17T09:13:30.739Z,15.49
2019-02-17T09:14:30.743Z,15.44
2019-02-17T09:15:30.743Z,15.46
2019-02-17T09:16:30.740Z,15.56
2019-02-17T09:17:30.743Z,15.76
2019-02-17T09:18:30.737Z,16.03
2019-02-17T09:19:30.741Z,16.50
2019-02-17T09:20:30.740Z,16.07
2019-02-17T09:21:30.741Z,15.46
2019-02-17T09:22:30.746Z,15.48
2019-02-17T09:23:30.746Z,15.84
2019-02-17T09:24:30.745Z,16.03
2019-02-17T09:25:30.744Z,15.56
2019-02-17T09:26:30.742Z,15.37
2019-02-17T09:27:30.742Z,15.40
2019-02-17T09:28:30.745Z,15.46
2019-02-17T09:29:30.754Z,15.60
2019-02-17T09:30:30.749Z,16.32
2019-02-17T09:31:30.742Z,16.03
2019-02-17T09:32:30.746Z,16.48
2019-02-17T09:33:30.746Z,16.69
2019-02-17T09:34:30.751Z,16.84
2019-02-17T09:35:30.751Z,16.40
2019-02-17T09:36:30.752Z,16.57
2019-02-17T09:37:30.752Z,17.02
2019-02-17T09:38:30.750Z,17.99
2019-02-17T09:39:30.749Z,18.72
2019-02-17T09:40:30.747Z,18.65
2019-02-17T09:41:30.752Z,18.01
2019-02-17T09:42:30.756Z,17.89
2019-02-17T09:43:30.758Z,17.81
2019-02-17T09:44:30.758Z,17.21
2019-02-17T09:45:30.755Z,17.02
2019-02-17T09:46:30.764Z,17.09
2019-02-17T09:47:30.765Z,16.90
2019-02-17T09:48:30.767Z,17.39
2019-02-17T09:49:30.770Z,17.05
2019-02-17T09:50:30.767Z,17.24
2019-02-17T09:51:30.769Z,17.12
2019-02-17T09:52:30.771Z,17.17
2019-02-17T09:53:30.772Z,17.57
2019-02-17T09:54:30.780Z,17.84
2019-02-17T09:55:30.778Z,18.29
2019-02-17T09:56:30.779Z,18.59
2019-02-17T09:57:30.783Z,18.64
2019-02-17T09:58:30.779Z,18.99
2019-02-17T09:59:30.781Z,18.49
2019-02-17T10:00:30.794Z,18.34
2019-02-17T10:01:30.791Z,17.86
2019-02-17T10:02:30.788Z,18.26
2019-02-17T10:03:30.791Z,18.36
2019-02-17T10:04:30.795Z,17.70
2019-02-17T10:05:30.799Z,17.10
2019-02-17T10:06:30.804Z,17.21
2019-02-17T10:07:30.808Z,16.91
2019-02-17T10:08:30.810Z,16.81
2019-02-17T10:09:30.814Z,16.92
2019-02-17T10:10:30.811Z,17.06
2019-02-17T10:11:30.814Z,17.21
2019-02-17T10:12:30.813Z,16.96
2019-02-17T10:13:30.854Z,17.42
2019-02-17T10:14:30.824Z,17.42
2019-02-17T10:15:30.824Z,17.60
2019-02-17T10:16:30.822Z,18.19
2019-02-17T10:17:30.826Z,18.99
2019-02-17T10:18:30.832Z,19.34
2019-02-17T10:19:30.833Z,18.96
2019-02-17T10:20:30.838Z,18.49
2019-02-17T10:21:30.844Z,18.84
2019-02-17T10:22:30.840Z,18.71
2019-02-17T10:23:30.845Z,18.31
2019-02-17T10:24:30.842Z,18.19
2019-02-17T10:25:30.846Z,18.47
2019-02-17T10:26:30.854Z,18.13
2019-02-17T10:27:30.858Z,18.16
2019-02-17T10:28:30.862Z,18.16
2019-02-17T10:29:30.866Z,18.38
2019-02-17T10:30:30.869Z,18.50
2019-02-17T10:31:30.867Z,18.46
2019-02-17T10:32:37.281Z,18.35
2019-02-17T10:33:30.879Z,18.19
2019-02-17T10:34:30.876Z,18.65
2019-02-17T10:35:30.880Z,18.60
2019-02-17T10:36:30.881Z,18.25
2019-02-17T10:37:30.883Z,18.66
2019-02-17T10:38:30.892Z,18.65
2019-02-17T10:39:30.895Z,18.01
2019-02-17T10:40:30.898Z,17.62
2019-02-17T10:41:30.904Z,18.23
2019-02-17T10:42:30.900Z,18.20
2019-02-17T10:43:30.907Z,18.89
2019-02-17T10:44:30.909Z,19.10
2019-02-17T10:45:30.916Z,18.99
2019-02-17T10:46:30.921Z,19.28
2019-02-17T10:47:30.923Z,19.60
2019-02-17T10:48:30.924Z,19.25
2019-02-17T10:49:30.928Z,19.38
2019-02-17T10:50:30.935Z,20.16
2019-02-17T10:51:30.938Z,19.64
2019-02-17T10:52:30.938Z,19.25
2019-02-17T10:53:30.944Z,19.79
2019-02-17T10:54:30.942Z,19.02
2019-02-17T10:55:30.946Z,18.59
2019-02-17T10:56:30.957Z,18.59
2019-02-17T10:57:30.952Z,18.74
2019-02-17T10:58:30.963Z,19.01
2019-02-17T10:59:30.965Z,19.42
2019-02-17T11:00:30.971Z,18.97
2019-02-17T11:01:30.976Z,18.53
2019-02-17T11:02:30.975Z,18.20
2019-02-17T11:03:30.977Z,18.50
2019-02-17T11:04:30.984Z,18.09
2019-02-17T11:05:30.988Z,18.26
2019-02-17T11:06:30.996Z,18.32
2019-02-17T11:07:30.991Z,18.56
2019-02-17T11:08:30.991Z,19.21
2019-02-17T11:09:30.995Z,19.68
2019-02-17T11:10:31.003Z,19.38
2019-02-17T11:11:31.005Z,19.49
2019-02-17T11:12:31.008Z,19.01
2019-02-17T11:13:31.013Z,19.23
2019-02-17T11:14:31.013Z,19.27
2019-02-17T11:15:31.016Z,19.67
2019-02-17T11:16:31.021Z,20.50
2019-02-17T11:17:31.023Z,20.91
2019-02-17T11:18:31.031Z,20.64
2019-02-17T11:19:31.033Z,21.13
2019-02-17T11:20:31.032Z,21.90
2019-02-17T11:21:31.036Z,22.35
2019-02-17T11:22:31.044Z,22.61
2019-02-17T11:23:31.046Z,22.61
2019-02-17T11:24:31.049Z,21.94
2019-02-17T11:25:31.052Z,20.91
2019-02-17T11:26:31.050Z,20.91
2019-02-17T11:27:31.053Z,20.76
2019-02-17T11:28:31.058Z,20.78
2019-02-17T11:29:31.064Z,20.91
2019-02-17T11:30:31.071Z,21.40
2019-02-17T11:31:31.075Z,22.01
2019-02-17T11:32:32.321Z,22.20
2019-02-17T11:33:31.085Z,22.08
2019-02-17T11:34:31.084Z,20.85
2019-02-17T11:35:31.091Z,19.94
2019-02-17T11:36:31.095Z,19.28
2019-02-17T11:37:31.102Z,19.42
2019-02-17T11:38:31.099Z,19.21
2019-02-17T11:39:31.102Z,19.07
2019-02-17T11:40:31.102Z,18.68
2019-02-17T11:41:31.107Z,18.64
2019-02-17T11:42:31.114Z,18.11
2019-02-17T11:43:31.118Z,17.54
2019-02-17T11:44:32.016Z,17.73
2019-02-17T11:45:31.121Z,17.53
2019-02-17T11:46:31.122Z,17.76
2019-02-17T11:47:31.123Z,17.58
2019-02-17T11:48:31.126Z,17.42
2019-02-17T11:49:31.131Z,17.27
2019-02-17T11:50:31.135Z,17.32
2019-02-17T11:51:31.138Z,17.05
2019-02-17T11:52:31.132Z,17.15
2019-02-17T11:53:31.132Z,17.24
2019-02-17T11:54:31.140Z,17.60
2019-02-17T11:55:31.139Z,17.65
2019-02-17T11:56:31.138Z,17.58
2019-02-17T11:57:31.139Z,17.63
2019-02-17T11:58:31.132Z,17.80
2019-02-17T11:59:31.132Z,17.87
2019-02-17T12:00:31.132Z,18.01
2019-02-17T12:01:31.132Z,18.20
2019-02-17T12:02:31.137Z,18.28
2019-02-17T12:03:31.137Z,18.38
2019-02-17T12:04:31.136Z,18.50
2019-02-17T12:05:31.136Z,18.36
2019-02-17T12:06:31.130Z,18.53
2019-02-17T12:07:31.129Z,18.31
2019-02-17T12:08:31.133Z,18.46
2019-02-17T12:09:31.130Z,18.16
2019-02-17T12:10:31.128Z,18.19
2019-02-17T12:11:31.124Z,18.26
2019-02-17T12:12:31.121Z,18.36
2019-02-17T12:13:31.121Z,18.23
2019-02-17T12:14:31.123Z,18.13
2019-02-17T12:15:31.121Z,17.95
2019-02-17T12:16:37.022Z,18.16
2019-02-17T12:17:31.118Z,17.96
2019-02-17T12:18:31.111Z,18.11
2019-02-17T12:19:31.109Z,17.95
2019-02-17T12:20:31.110Z,17.99
2019-02-17T12:21:31.108Z,17.80
2019-02-17T12:22:31.112Z,17.94
2019-02-17T12:23:31.109Z,17.86
2019-02-17T12:24:31.105Z,17.79
2019-02-17T12:25:31.101Z,17.92
2019-02-17T12:26:31.103Z,18.16
2019-02-17T12:27:31.102Z,18.17
2019-02-17T12:28:31.098Z,18.17
2019-02-17T12:29:31.095Z,18.23
2019-02-17T12:30:31.090Z,18.35
2019-02-17T12:31:31.085Z,18.50
2019-02-17T12:32:31.086Z,18.35
2019-02-17T12:33:31.087Z,18.28
2019-02-17T12:34:31.087Z,18.35
2019-02-17T12:35:31.086Z,18.13
2019-02-17T12:36:31.080Z,18.19
2019-02-17T12:37:31.077Z,18.21
2019-02-17T12:38:31.071Z,18.13
2019-02-17T12:39:31.067Z,18.25
2019-02-17T12:40:31.077Z,18.31
2019-02-17T12:41:31.070Z,18.36
2019-02-17T12:42:31.062Z,18.29
2019-02-17T12:43:31.059Z,18.21
2019-02-17T12:44:31.060Z,18.20
2019-02-17T12:45:31.057Z,18.16
2019-02-17T12:46:31.059Z,18.29
2019-02-17T12:47:31.056Z,18.23
2019-02-17T12:48:31.054Z,18.17
2019-02-17T12:49:31.052Z,18.29
2019-02-17T12:50:31.047Z,18.23
2019-02-17T12:51:31.041Z,18.14
2019-02-17T12:52:31.037Z,18.04
2019-02-17T12:53:31.036Z,18.10
2019-02-17T12:54:31.041Z,18.14
2019-02-17T12:55:31.036Z,18.14
2019-02-17T12:56:31.032Z,17.94
2019-02-17T12:57:31.024Z,17.89
2019-02-17T12:58:31.027Z,17.98
2019-02-17T12:59:31.023Z,17.89
2019-02-17T13:00:31.023Z,17.92
2019-02-17T13:01:31.021Z,17.94
2019-02-17T13:02:31.099Z,17.95
2019-02-17T13:03:31.012Z,18.21
2019-02-17T13:04:31.009Z,18.16
2019-02-17T13:05:31.004Z,17.94
2019-02-17T13:06:31.008Z,17.86